Time;durP1;ratioP1;P1;durP2;ratioP2;P2;SDS_P1;SDS_P2;PMS_P1;PMS_P2;Temp;Humidity;BMP_temperature;BMP_pressure;BME280_temperature;BME280_humidity;BME280_pressure;Samples;Min_cycle;Max_cycle;Signal;HPM_P1;HPM_P2
2022/11/26 00:02:26;;;;;;;3.00;1.20;;;5.00;98.40;;;;;;4899597;29;20131;-82
2022/11/26 00:04:54;;;;;;;3.33;1.13;;;5.00;98.40;;;;;;4910464;29;20056;-86
2022/11/26 00:07:25;;;;;;;2.35;1.02;;;5.00;98.50;;;;;;4902946;29;20044;-80
2022/11/26 00:09:56;;;;;;;5.65;1.52;;;4.90;98.40;;;;;;4905158;29;20490;-80
2022/11/26 00:12:26;;;;;;;4.07;1.33;;;4.90;98.40;;;;;;4890946;29;20071;-81
2022/11/26 00:14:53;;;;;;;2.80;1.25;;;4.90;98.40;;;;;;4911970;29;20471;-81
2022/11/26 00:17:20;;;;;;;2.95;1.45;;;4.90;98.40;;;;;;4904703;29;20143;-81
2022/11/26 00:19:50;;;;;;;3.03;1.17;;;4.90;98.50;;;;;;4894548;29;20091;-81
2022/11/26 00:22:25;;;;;;;2.95;1.08;;;4.90;98.50;;;;;;4881086;29;20443;-81
2022/11/26 00:24:53;;;;;;;2.55;0.98;;;4.90;98.50;;;;;;4913224;29;20495;-81
2022/11/26 00:27:23;;;;;;;3.45;1.40;;;4.90;98.40;;;;;;4896241;29;20079;-82
2022/11/26 00:29:50;;;;;;;2.83;1.00;;;4.90;98.40;;;;;;4902024;29;20049;-80
2022/11/26 00:32:20;;;;;;;3.00;1.27;;;4.90;98.40;;;;;;4911679;29;20040;-81
2022/11/26 00:34:47;;;;;;;1.92;1.08;;;4.80;98.40;;;;;;4906173;29;20459;-81
2022/11/26 00:37:26;;;;;;;2.65;1.95;;;4.80;98.40;;;;;;4903427;29;20091;-81
2022/11/26 00:39:55;;;;;;;3.88;1.25;;;4.80;98.40;;;;;;4918106;29;20063;-81
2022/11/26 00:42:25;;;;;;;4.72;1.23;;;4.80;98.40;;;;;;4876714;29;20107;-81
2022/11/26 00:44:55;;;;;;;2.58;1.02;;;4.80;98.40;;;;;;4875246;29;20056;-80
2022/11/26 00:47:23;;;;;;;2.47;0.93;;;4.70;98.40;;;;;;4898896;29;20033;-80
2022/11/26 00:49:50;;;;;;;3.85;1.02;;;4.80;98.40;;;;;;4875632;29;20036;-80
2022/11/26 00:52:27;;;;;;;2.35;0.90;;;4.70;98.40;;;;;;4913536;29;20060;-80
2022/11/26 00:54:54;;;;;;;2.22;0.98;;;4.70;98.40;;;;;;4903757;29;20056;-81
2022/11/26 00:57:21;;;;;;;3.03;0.85;;;4.70;98.40;;;;;;4897714;29;20044;-80
2022/11/26 00:59:48;;;;;;;3.30;1.02;;;4.70;98.40;;;;;;4900076;29;20104;-80
2022/11/26 01:02:15;;;;;;;1.85;1.02;;;4.70;98.40;;;;;;4897035;29;20421;-81
2022/11/26 01:04:42;;;;;;;2.72;1.05;;;4.70;98.40;;;;;;4869798;29;20052;-80
2022/11/26 01:07:10;;;;;;;2.70;1.13;;;4.60;98.40;;;;;;4884250;29;20044;-81
2022/11/26 01:09:37;;;;;;;2.25;0.90;;;4.60;98.40;;;;;;4897365;29;20135;-80
2022/11/26 01:12:11;;;;;;;2.35;0.80;;;4.60;98.40;;;;;;4884216;29;20064;-81
2022/11/26 01:14:38;;;;;;;3.70;1.20;;;4.60;98.40;;;;;;4905769;29;20546;-80
2022/11/26 01:17:10;;;;;;;2.05;0.77;;;4.60;98.40;;;;;;4902738;29;20056;-80
2022/11/26 01:19:37;;;;;;;2.33;0.98;;;4.50;98.40;;;;;;4916156;29;20048;-80
2022/11/26 01:22:04;;;;;;;2.22;1.00;;;4.50;98.40;;;;;;4893793;29;20131;-80
2022/11/26 01:24:31;;;;;;;3.00;1.17;;;4.50;98.40;;;;;;4894745;29;20044;-80
2022/11/26 01:26:58;;;;;;;2.42;0.95;;;4.40;98.40;;;;;;4903732;29;20131;-80
2022/11/26 01:29:25;;;;;;;3.80;1.27;;;4.50;98.40;;;;;;4902536;29;20530;-80
2022/11/26 01:31:55;;;;;;;4.53;1.00;;;4.40;98.40;;;;;;4895738;29;20036;-81
2022/11/26 01:34:22;;;;;;;2.22;0.90;;;4.40;98.40;;;;;;4891378;29;20044;-80
2022/11/26 01:36:49;;;;;;;4.07;1.10;;;4.40;98.40;;;;;;4884898;29;20051;-80
2022/11/26 01:39:19;;;;;;;3.15;1.15;;;4.40;98.40;;;;;;4907467;29;20537;-81
2022/11/26 01:42:21;;;;;;;2.35;1.00;;;4.40;98.40;;;;;;4892448;29;20103;-80
2022/11/26 01:44:50;;;;;;;2.00;0.80;;;4.40;98.40;;;;;;4904442;29;20052;-81
2022/11/26 01:47:29;;;;;;;2.78;1.00;;;4.30;98.40;;;;;;4907258;29;20491;-80
2022/11/26 01:50:27;;;;;;;4.10;1.30;;;4.30;98.40;;;;;;4918048;29;20052;-80
2022/11/26 01:52:58;;;;;;;2.33;1.05;;;4.30;98.40;;;;;;4918665;29;20040;-80
2022/11/26 01:55:50;;;;;;;2.85;1.20;;;4.30;98.40;;;;;;4922139;29;20047;-80
2022/11/26 01:58:25;;;;;;;;;;;4.30;98.40;;;;;;4926582;29;20058;-80
2022/11/26 02:00:52;;;;;;;1.60;0.63;;;4.20;98.40;;;;;;4919681;29;19956;-80
2022/11/26 02:03:28;;;;;;;2.38;0.80;;;4.20;98.50;;;;;;4891601;29;20083;-80
2022/11/26 02:05:57;;;;;;;;;;;4.20;98.40;;;;;;4918014;29;20418;-81
2022/11/26 02:08:29;;;;;;;1.90;0.80;;;4.10;98.40;;;;;;4915539;29;20006;-81
2022/11/26 02:10:56;;;;;;;2.08;0.93;;;4.10;98.50;;;;;;4926157;29;20071;-81
2022/11/26 02:13:25;;;;;;;2.00;1.15;;;4.10;98.40;;;;;;4910989;29;20052;-81
2022/11/26 02:16:23;;;;;;;3.08;0.88;;;4.10;98.40;;;;;;4896317;29;20048;-80
2022/11/26 02:19:07;;;;;;;2.03;0.82;;;4.10;98.40;;;;;;4913920;29;20053;-81
2022/11/26 02:21:36;;;;;;;2.50;0.90;;;4.10;98.40;;;;;;4917441;29;20513;-80
2022/11/26 02:24:20;;;;;;;2.17;0.80;;;4.00;98.40;;;;;;4917297;29;20044;-81
2022/11/26 02:27:10;;;;;;;2.60;1.13;;;4.10;98.40;;;;;;4932546;29;20040;-81
2022/11/26 02:29:58;;;;;;;3.13;0.80;;;4.10;98.40;;;;;;4916809;29;20080;-80
2022/11/26 02:33:01;;;;;;;2.22;1.00;;;4.00;98.40;;;;;;4907593;29;20055;-80
2022/11/26 02:35:48;;;;;;;3.13;0.90;;;4.00;98.40;;;;;;4900434;29;20553;-81
2022/11/26 02:38:31;;;;;;;1.40;0.68;;;4.00;98.40;;;;;;4916852;29;20371;-79
2022/11/26 02:40:59;;;;;;;3.15;1.02;;;4.00;98.40;;;;;;4904060;29;20048;-81
2022/11/26 02:43:27;;;;;;;2.20;0.77;;;3.90;98.40;;;;;;4929955;29;20067;-80
2022/11/26 02:45:59;;;;;;;1.90;0.80;;;3.90;98.40;;;;;;4887363;29;20555;-80
2022/11/26 02:48:31;;;;;;;3.22;1.10;;;3.90;98.40;;;;;;4911495;29;20510;-81
2022/11/26 02:51:06;;;;;;;2.85;1.10;;;3.90;98.40;;;;;;4905151;29;20138;-81
2022/11/26 02:53:36;;;;;;;3.15;1.15;;;3.90;98.40;;;;;;4895679;29;20571;-79
2022/11/26 02:56:08;;;;;;;3.95;1.42;;;3.90;98.40;;;;;;4916781;29;20044;-80
2022/11/26 02:58:36;;;;;;;2.17;1.00;;;3.90;98.40;;;;;;4906253;29;20393;-80
2022/11/26 03:01:08;;;;;;;1.95;0.90;;;3.90;98.40;;;;;;4895376;29;20060;-80
2022/11/26 03:03:42;;;;;;;2.72;1.40;;;3.90;98.40;;;;;;4904870;29;20053;-80
2022/11/26 03:06:13;;;;;;;3.20;1.20;;;3.90;98.40;;;;;;4886840;29;20153;-80
2022/11/26 03:08:41;;;;;;;3.45;1.40;;;3.90;98.40;;;;;;4916524;29;20044;-80
2022/11/26 03:11:08;;;;;;;2.28;1.30;;;3.90;98.40;;;;;;4903083;29;20044;-80
2022/11/26 03:13:35;;;;;;;2.35;0.95;;;3.80;98.40;;;;;;4867933;29;20080;-80
2022/11/26 03:16:03;;;;;;;6.38;1.70;;;3.80;98.30;;;;;;4895303;29;20048;-81
2022/11/26 03:18:30;;;;;;;2.70;1.08;;;3.80;98.40;;;;;;4888955;29;20046;-80
2022/11/26 03:20:57;;;;;;;2.08;1.27;;;3.80;98.40;;;;;;4899025;29;20177;-80
2022/11/26 03:23:24;;;;;;;3.72;1.30;;;3.80;98.40;;;;;;4884389;29;20403;-80
2022/11/26 03:25:51;;;;;;;2.72;0.98;;;3.80;98.30;;;;;;4919614;29;20134;-81
2022/11/26 03:28:18;;;;;;;4.72;1.42;;;3.80;98.40;;;;;;4897539;29;20053;-80
2022/11/26 03:30:47;;;;;;;1.90;0.73;;;3.80;98.40;;;;;;4897486;29;20043;-80
2022/11/26 03:33:14;;;;;;;3.13;0.80;;;3.70;98.40;;;;;;4915512;29;20518;-80
2022/11/26 03:35:42;;;;;;;2.58;1.30;;;3.80;98.40;;;;;;4896974;29;20049;-81
2022/11/26 03:38:09;;;;;;;2.65;1.10;;;3.70;98.30;;;;;;4900448;29;20063;-80
2022/11/26 03:40:36;;;;;;;2.35;1.10;;;3.70;98.40;;;;;;4881320;29;20052;-81
2022/11/26 03:43:03;;;;;;;4.78;1.15;;;3.70;98.30;;;;;;4894384;29;20104;-80
2022/11/26 03:45:30;;;;;;;2.95;1.05;;;3.70;98.30;;;;;;4895299;29;20044;-80
2022/11/26 03:48:00;;;;;;;4.50;1.25;;;3.70;98.30;;;;;;4901341;29;20101;-80
2022/11/26 03:50:27;;;;;;;2.72;1.20;;;3.70;98.30;;;;;;4895087;29;20066;-80
2022/11/26 03:52:54;;;;;;;3.40;1.08;;;3.70;98.30;;;;;;4892474;29;20048;-81
2022/11/26 03:55:21;;;;;;;3.05;1.13;;;3.70;98.30;;;;;;4896414;29;20134;-81
2022/11/26 03:57:48;;;;;;;3.35;1.25;;;3.70;98.30;;;;;;4894138;29;20103;-81
2022/11/26 04:00:16;;;;;;;2.40;1.05;;;3.70;98.30;;;;;;4908351;29;20067;-81
2022/11/26 04:02:43;;;;;;;5.28;1.10;;;3.70;98.30;;;;;;4902773;29;20050;-80
2022/11/26 04:05:10;;;;;;;3.30;1.13;;;3.70;98.30;;;;;;4898790;29;20063;-79
2022/11/26 04:07:37;;;;;;;3.63;1.20;;;3.70;98.30;;;;;;4883180;29;20147;-80
2022/11/26 04:10:05;;;;;;;2.65;1.30;;;3.60;98.30;;;;;;4899412;29;20497;-80
2022/11/26 04:12:32;;;;;;;3.15;1.25;;;3.60;98.30;;;;;;4888933;29;20095;-80
2022/11/26 04:14:59;;;;;;;2.88;1.27;;;3.60;98.30;;;;;;4900060;29;20138;-80
2022/11/26 04:17:26;;;;;;;3.05;1.20;;;3.60;98.30;;;;;;4904169;29;20051;-81
2022/11/26 04:19:53;;;;;;;3.42;1.10;;;3.60;98.30;;;;;;4898824;29;20048;-81
2022/11/26 04:22:20;;;;;;;3.70;1.00;;;3.60;98.30;;;;;;4891340;29;20044;-81
2022/11/26 04:24:47;;;;;;;3.10;1.52;;;3.60;98.30;;;;;;4899379;29;20062;-82
2022/11/26 04:27:14;;;;;;;3.22;1.33;;;3.60;98.30;;;;;;4881968;29;20044;-81
2022/11/26 04:29:41;;;;;;;1.88;0.93;;;3.60;98.40;;;;;;4902511;29;20146;-81
2022/11/26 04:32:08;;;;;;;2.13;1.25;;;3.60;98.30;;;;;;4896864;29;20559;-81
2022/11/26 04:34:35;;;;;;;3.20;1.20;;;3.60;98.30;;;;;;4894849;29;20125;-80
2022/11/26 04:37:02;;;;;;;3.03;1.00;;;3.50;98.30;;;;;;4894367;29;20108;-80
2022/11/26 04:39:29;;;;;;;2.72;1.27;;;3.50;98.30;;;;;;4894183;29;20048;-81
2022/11/26 04:41:56;;;;;;;2.83;1.20;;;3.50;98.30;;;;;;4901520;29;20499;-80
2022/11/26 04:44:23;;;;;;;2.63;1.40;;;3.50;98.30;;;;;;4925295;29;20068;-81
2022/11/26 04:46:50;;;;;;;4.45;1.13;;;3.50;98.30;;;;;;4902167;29;20049;-81
2022/11/26 04:49:23;;;;;;;3.63;1.30;;;3.50;98.30;;;;;;4908750;29;20529;-80
2022/11/26 04:51:50;;;;;;;2.75;1.20;;;3.50;98.30;;;;;;4902557;29;20524;-80
2022/11/26 04:54:16;;;;;;;2.45;1.30;;;3.40;98.30;;;;;;4891766;29;20059;-80
2022/11/26 04:56:43;;;;;;;3.00;1.40;;;3.40;98.30;;;;;;4910040;29;20207;-80
2022/11/26 04:59:10;;;;;;;3.42;1.10;;;3.40;98.30;;;;;;4886677;29;20049;-80
2022/11/26 05:01:37;;;;;;;3.45;1.23;;;3.40;98.30;;;;;;4915120;29;20112;-81
2022/11/26 05:04:04;;;;;;;2.60;1.15;;;3.40;98.30;;;;;;4886455;29;20045;-81
2022/11/26 05:06:31;;;;;;;2.78;0.80;;;3.30;98.30;;;;;;4878030;29;20051;-81
2022/11/26 05:08:59;;;;;;;2.83;1.08;;;3.40;98.30;;;;;;4880657;29;20052;-81
2022/11/26 05:11:25;;;;;;;2.30;1.15;;;3.30;98.30;;;;;;4909413;29;20075;-81
2022/11/26 05:13:55;;;;;;;2.58;1.23;;;3.30;98.60;;;;;;4892935;29;20080;-81
2022/11/26 05:16:26;;;;;;;2.30;1.30;;;3.40;98.30;;;;;;4916197;29;20056;-80
2022/11/26 05:18:53;;;;;;;1.90;0.90;;;3.40;98.30;;;;;;4899675;29;20518;-80
2022/11/26 05:21:20;;;;;;;3.85;1.13;;;3.40;98.30;;;;;;4912925;29;20075;-80
2022/11/26 05:23:47;;;;;;;3.85;0.90;;;3.30;98.50;;;;;;4876792;29;20388;-81
2022/11/26 05:26:14;;;;;;;3.35;1.60;;;3.30;98.30;;;;;;4889569;29;20463;-81
2022/11/26 05:28:41;;;;;;;3.75;1.40;;;3.30;98.30;;;;;;4896415;29;20100;-80
2022/11/26 05:31:10;;;;;;;2.25;1.10;;;3.30;98.30;;;;;;4896262;29;20101;-80
2022/11/26 05:33:38;;;;;;;3.30;1.23;;;3.30;98.30;;;;;;4872021;29;20071;-80
2022/11/26 05:36:05;;;;;;;3.75;1.42;;;3.30;98.30;;;;;;4892060;29;20096;-81
2022/11/26 05:38:32;;;;;;;2.67;1.42;;;3.30;98.30;;;;;;4899019;29;20068;-80
2022/11/26 05:40:59;;;;;;;3.10;1.40;;;3.30;98.30;;;;;;4893890;29;20155;-80
2022/11/26 05:43:26;;;;;;;3.17;1.23;;;3.40;98.30;;;;;;4904217;29;20451;-80
2022/11/26 05:45:53;;;;;;;3.08;1.50;;;3.30;98.30;;;;;;4892362;29;20139;-81
2022/11/26 05:48:20;;;;;;;3.85;1.40;;;3.30;98.30;;;;;;4894971;29;20044;-80
2022/11/26 05:50:47;;;;;;;3.45;1.50;;;3.30;98.30;;;;;;4909320;29;20063;-80
2022/11/26 05:53:20;;;;;;;3.72;1.67;;;3.30;98.30;;;;;;4907933;29;20474;-81
2022/11/26 05:55:47;;;;;;;2.88;1.30;;;3.30;98.30;;;;;;4898676;29;20380;-80
2022/11/26 05:58:14;;;;;;;3.63;1.63;;;3.30;98.30;;;;;;4902582;29;20455;-80
2022/11/26 06:00:41;;;;;;;2.60;1.02;;;3.30;98.30;;;;;;4898472;29;20048;-81
2022/11/26 06:03:08;;;;;;;3.13;1.50;;;3.30;98.30;;;;;;4890792;29;20088;-81
2022/11/26 06:05:35;;;;;;;3.47;1.35;;;3.30;98.30;;;;;;4903823;29;20143;-81
2022/11/26 06:08:02;;;;;;;3.28;1.38;;;3.30;98.30;;;;;;4904246;29;20162;-80
2022/11/26 06:10:29;;;;;;;3.10;1.30;;;3.20;98.30;;;;;;4918999;29;20048;-82
2022/11/26 06:12:56;;;;;;;4.65;1.30;;;3.20;98.30;;;;;;4913669;29;20045;-80
2022/11/26 06:15:23;;;;;;;4.00;1.20;;;3.20;98.20;;;;;;4910802;29;20056;-80
2022/11/26 06:17:50;;;;;;;3.42;1.10;;;3.20;98.30;;;;;;4908464;29;20044;-80
2022/11/26 06:20:17;;;;;;;2.95;1.20;;;3.20;98.50;;;;;;4920010;29;20060;-80
2022/11/26 06:22:44;;;;;;;3.75;1.25;;;3.20;98.20;;;;;;4905818;29;20068;-80
2022/11/26 06:25:13;;;;;;;3.85;1.13;;;3.20;98.30;;;;;;4919249;29;20048;-80
2022/11/26 06:27:40;;;;;;;3.35;1.20;;;3.20;98.30;;;;;;4923397;29;20052;-81
2022/11/26 06:30:09;;;;;;;5.05;2.65;;;3.10;98.20;;;;;;4906620;29;20076;-80
2022/11/26 06:32:37;;;;;;;3.33;1.60;;;3.20;98.30;;;;;;4922989;29;20044;-80
2022/11/26 06:35:10;;;;;;;5.32;1.45;;;3.10;98.20;;;;;;4896859;29;20047;-82
2022/11/26 06:37:45;;;;;;;8.33;1.47;;;3.10;98.20;;;;;;4927126;29;20056;-80
2022/11/26 06:40:16;;;;;;;4.22;1.42;;;3.10;98.20;;;;;;4923893;29;20085;-83
2022/11/26 06:42:51;;;;;;;4.05;1.75;;;3.10;98.20;;;;;;4938339;29;20048;-80
2022/11/26 06:45:20;;;;;;;2.83;1.48;;;3.20;98.20;;;;;;4919210;29;20044;-88
2022/11/26 06:47:48;;;;;;;2.88;1.50;;;3.10;98.20;;;;;;4903704;29;20083;-87
2022/11/26 06:50:17;;;;;;;2.70;1.38;;;3.20;98.30;;;;;;4918245;29;20052;-88
2022/11/26 06:52:45;;;;;;;2.78;1.23;;;3.10;98.20;;;;;;4902568;29;20055;-87
2022/11/26 06:55:12;;;;;;;3.40;1.60;;;3.20;98.30;;;;;;4917888;29;20044;-87
2022/11/26 06:57:39;;;;;;;3.20;1.20;;;3.10;98.20;;;;;;4899216;29;20052;-86
2022/11/26 07:00:06;;;;;;;2.90;1.60;;;3.10;98.20;;;;;;4909242;29;20140;-87
2022/11/26 07:02:34;;;;;;;4.20;1.60;;;3.10;98.20;;;;;;4900848;29;20044;-86
2022/11/26 07:05:00;;;;;;;3.38;1.50;;;3.10;98.20;;;;;;4899940;29;20052;-87
2022/11/26 07:07:28;;;;;;;3.50;1.30;;;3.10;98.20;;;;;;4888805;29;20464;-87
2022/11/26 07:09:55;;;;;;;4.10;2.00;;;3.10;98.20;;;;;;4896829;29;20052;-87
2022/11/26 07:12:23;;;;;;;3.72;1.63;;;3.10;98.20;;;;;;4879489;29;20083;-86
2022/11/26 07:14:50;;;;;;;3.85;1.60;;;3.20;98.20;;;;;;4921432;29;20209;-86
2022/11/26 07:17:17;;;;;;;4.68;1.65;;;3.10;98.20;;;;;;4911677;29;20509;-87
2022/11/26 07:19:44;;;;;;;3.38;1.42;;;3.10;98.10;;;;;;4885568;29;20053;-88
2022/11/26 07:22:11;;;;;;;3.33;1.50;;;3.20;98.20;;;;;;4892151;29;20048;-87
2022/11/26 07:24:38;;;;;;;2.92;1.48;;;3.20;98.20;;;;;;4901993;29;20055;-87
2022/11/26 07:27:07;;;;;;;3.40;1.67;;;3.20;98.20;;;;;;4879281;29;20079;-87
2022/11/26 07:29:34;;;;;;;3.83;1.33;;;3.10;98.10;;;;;;4902256;29;20052;-88
2022/11/26 07:32:01;;;;;;;3.35;1.30;;;3.10;98.10;;;;;;4905692;29;20055;-87
2022/11/26 07:34:28;;;;;;;4.03;1.63;;;3.20;98.20;;;;;;4911582;29;20056;-88
2022/11/26 07:36:55;;;;;;;3.97;1.80;;;3.20;98.20;;;;;;4881232;29;20056;-88
2022/11/26 07:39:26;;;;;;;4.38;2.00;;;3.20;98.20;;;;;;4899637;29;20521;-88
2022/11/26 07:41:53;;;;;;;2.85;1.30;;;3.20;98.10;;;;;;4901757;29;20048;-87
2022/11/26 07:44:20;;;;;;;2.53;1.50;;;3.20;98.10;;;;;;4898912;29;20048;-88
2022/11/26 07:46:47;;;;;;;3.22;1.55;;;3.20;98.10;;;;;;4895653;29;20048;-87
2022/11/26 07:49:17;;;;;;;2.75;1.67;;;3.20;98.10;;;;;;4876000;29;20514;-88
2022/11/26 07:51:43;;;;;;;3.00;1.17;;;3.30;98.10;;;;;;4898913;29;20075;-89
2022/11/26 07:54:11;;;;;;;3.70;1.23;;;3.30;98.10;;;;;;4892970;29;20107;-88
2022/11/26 07:56:45;;;;;;;4.45;1.40;;;3.40;98.10;;;;;;4914094;29;20583;-89
2022/11/26 07:59:12;;;;;;;2.42;0.95;;;3.30;98.00;;;;;;4895612;29;20058;-88
2022/11/26 08:01:39;;;;;;;3.28;1.38;;;3.40;98.00;;;;;;4890589;29;20051;-88
2022/11/26 08:04:06;;;;;;;2.88;1.08;;;3.40;98.00;;;;;;4899332;29;20044;-88
2022/11/26 08:06:35;;;;;;;2.58;1.23;;;3.40;98.00;;;;;;4895149;29;20041;-88
2022/11/26 08:09:04;;;;;;;3.30;1.20;;;3.40;98.00;;;;;;4855133;29;20048;-89
2022/11/26 08:11:32;;;;;;;3.13;1.30;;;3.40;98.00;;;;;;4898674;29;20525;-88
2022/11/26 08:14:03;;;;;;;2.10;1.05;;;3.40;97.90;;;;;;4893147;29;20552;-88
2022/11/26 08:16:30;;;;;;;5.88;1.80;;;3.50;98.20;;;;;;4916149;29;20115;-87
2022/11/26 08:19:00;;;;;;;2.85;1.33;;;3.50;97.90;;;;;;4912432;29;20052;-88
2022/11/26 08:21:27;;;;;;;2.95;1.30;;;3.50;98.20;;;;;;4908350;29;20063;-87
2022/11/26 08:23:55;;;;;;;3.47;1.23;;;3.50;97.90;;;;;;4907422;29;20045;-88
2022/11/26 08:26:49;;;;;;;3.50;1.20;;;3.50;97.90;;;;;;4899476;29;20117;-84
2022/11/26 08:29:16;;;;;;;3.35;1.30;;;3.60;97.90;;;;;;4900743;29;20052;-84
2022/11/26 08:31:47;;;;;;;3.08;1.13;;;3.60;97.90;;;;;;4921536;29;20044;-86
2022/11/26 08:34:15;;;;;;;2.85;1.10;;;3.60;97.90;;;;;;4900772;29;20056;-83
2022/11/26 08:36:43;;;;;;;3.47;1.17;;;3.70;97.90;;;;;;4913032;29;20048;-83
2022/11/26 08:39:16;;;;;;;3.63;1.38;;;3.70;97.90;;;;;;4896752;29;20072;-84
2022/11/26 08:41:44;;;;;;;4.13;1.38;;;3.90;97.80;;;;;;4895585;29;20464;-84
2022/11/26 08:44:18;;;;;;;3.75;1.50;;;3.90;97.80;;;;;;4906587;29;20040;-85
2022/11/26 08:46:46;;;;;;;4.68;1.77;;;4.00;97.70;;;;;;4912779;29;20040;-84
2022/11/26 08:49:16;;;;;;;3.13;1.25;;;4.10;97.70;;;;;;4906703;29;20045;-84
2022/11/26 08:51:43;;;;;;;4.32;1.80;;;4.20;97.60;;;;;;4892194;29;20044;-88
2022/11/26 08:54:10;;;;;;;3.63;1.58;;;4.30;97.60;;;;;;4916179;29;20079;-88
2022/11/26 08:56:39;;;;;;;3.58;1.85;;;4.40;97.60;;;;;;4895961;29;20057;-88
2022/11/26 08:59:06;;;;;;;5.20;2.17;;;4.50;97.50;;;;;;4884840;29;20056;-88
2022/11/26 09:01:33;;;;;;;5.05;2.28;;;4.60;97.40;;;;;;4861745;29;20111;-88
2022/11/26 09:04:05;;;;;;;3.38;1.73;;;4.70;97.40;;;;;;4891420;29;20048;-86
2022/11/26 09:06:37;;;;;;;4.47;1.85;;;4.80;97.30;;;;;;4898554;29;20095;-89
2022/11/26 09:09:11;;;;;;;4.47;2.22;;;4.90;97.30;;;;;;4920341;29;20040;-88
2022/11/26 09:11:48;;;;;;;4.13;1.80;;;5.00;97.30;;;;;;4900936;29;20112;-86
2022/11/26 09:14:18;;;;;;;4.13;1.88;;;5.10;97.20;;;;;;4909494;29;20052;-86
2022/11/26 09:16:46;;;;;;;6.05;2.10;;;5.20;97.20;;;;;;4925026;29;20540;-85
2022/11/26 09:19:14;;;;;;;4.53;1.98;;;5.20;97.20;;;;;;4911296;29;20130;-88
2022/11/26 09:21:43;;;;;;;3.97;1.77;;;5.30;97.10;;;;;;4922203;29;20071;-88
2022/11/26 09:24:11;;;;;;;3.42;2.10;;;5.40;97.10;;;;;;4903648;29;20056;-87
2022/11/26 09:26:38;;;;;;;3.72;2.03;;;5.40;97.10;;;;;;4901002;29;20064;-88
2022/11/26 09:29:05;;;;;;;4.43;2.10;;;5.50;97.30;;;;;;4894219;29;20054;-88
2022/11/26 09:31:32;;;;;;;4.93;2.22;;;5.50;97.00;;;;;;4900313;29;20051;-87
2022/11/26 09:34:00;;;;;;;3.83;2.22;;;5.50;97.00;;;;;;4903754;29;20494;-87
2022/11/26 09:36:28;;;;;;;3.75;1.60;;;5.60;97.00;;;;;;4909818;29;20048;-89
2022/11/26 09:38:56;;;;;;;3.67;2.00;;;5.60;97.00;;;;;;4903490;29;20143;-88
2022/11/26 09:41:23;;;;;;;3.08;1.70;;;5.70;97.00;;;;;;4903820;29;20502;-88
2022/11/26 09:43:50;;;;;;;4.80;2.00;;;5.70;97.00;;;;;;4914772;29;20050;-88
2022/11/26 09:46:40;;;;;;;3.95;1.90;;;5.80;97.00;;;;;;4919057;29;20056;-89
2022/11/26 09:49:32;;;;;;;4.43;2.38;;;5.90;96.90;;;;;;4919295;29;20083;-86
2022/11/26 09:51:59;;;;;;;4.32;2.10;;;5.90;96.90;;;;;;4890386;29;20174;-86
2022/11/26 09:54:29;;;;;;;6.50;2.03;;;6.00;96.90;;;;;;4907832;29;20071;-84
2022/11/26 09:57:08;;;;;;;3.63;1.45;;;6.10;96.90;;;;;;4884043;29;20068;-83
2022/11/26 09:59:38;;;;;;;4.53;2.15;;;6.20;96.80;;;;;;4914086;29;20048;-83
2022/11/26 10:02:11;;;;;;;3.63;1.65;;;6.20;96.70;;;;;;4899016;29;20219;-83
2022/11/26 10:04:40;;;;;;;5.43;1.90;;;6.30;96.70;;;;;;4913085;29;20059;-82
2022/11/26 10:07:28;;;;;;;5.65;2.10;;;6.40;96.70;;;;;;4900389;29;20101;-82
2022/11/26 10:10:28;;;;;;;5.70;2.50;;;6.50;96.70;;;;;;4902782;29;20048;-84
2022/11/26 10:13:18;;;;;;;4.72;1.60;;;6.50;96.60;;;;;;4917014;29;20112;-83
2022/11/26 10:16:17;;;;;;;4.30;1.60;;;6.60;96.60;;;;;;4917881;29;20045;-82
2022/11/26 10:19:00;;;;;;;5.63;1.70;;;6.60;96.60;;;;;;4898836;29;20084;-82
2022/11/26 10:21:41;;;;;;;5.28;1.63;;;6.70;96.50;;;;;;4915694;29;20051;-82
2022/11/26 10:24:37;;;;;;;5.70;1.98;;;6.80;96.50;;;;;;4909340;29;20068;-83
2022/11/26 10:27:17;;;;;;;2.88;1.60;;;6.80;96.50;;;;;;4883293;29;20062;-82
2022/11/26 10:29:58;;;;;;;3.83;1.90;;;6.80;96.50;;;;;;4911809;29;20037;-82
2022/11/26 10:32:26;;;;;;;4.55;1.40;;;6.90;96.50;;;;;;4907664;29;20051;-83
2022/11/26 10:34:56;;;;;;;4.40;2.00;;;7.00;96.50;;;;;;4920887;29;20048;-82
2022/11/26 10:37:26;;;;;;;4.68;1.77;;;7.10;96.50;;;;;;4904678;29;20521;-82
2022/11/26 10:40:17;;;;;;;4.18;1.98;;;7.10;96.40;;;;;;4910160;29;20044;-83
2022/11/26 10:42:57;;;;;;;5.07;1.85;;;7.20;96.40;;;;;;4901416;29;20459;-82
2022/11/26 10:45:35;;;;;;;4.20;1.55;;;7.30;96.40;;;;;;4921582;29;20082;-83
2022/11/26 10:48:25;;;;;;;3.88;1.80;;;7.30;96.40;;;;;;4908662;29;20040;-82
2022/11/26 10:51:16;;;;;;;3.10;1.40;;;7.40;96.30;;;;;;4912517;29;20383;-84
2022/11/26 10:54:03;;;;;;;3.63;1.55;;;7.50;96.30;;;;;;4903939;29;20084;-82
2022/11/26 10:56:40;;;;;;;4.38;1.58;;;7.50;96.30;;;;;;4916911;29;20058;-84
2022/11/26 10:59:27;;;;;;;3.15;1.33;;;7.60;96.30;;;;;;4899818;29;20422;-82
2022/11/26 11:02:02;;;;;;;2.90;1.20;;;7.60;96.30;;;;;;4907681;29;20055;-83
2022/11/26 11:04:37;;;;;;;2.45;1.48;;;7.70;96.30;;;;;;4916411;29;20048;-82
2022/11/26 11:07:05;;;;;;;2.25;0.90;;;7.70;96.30;;;;;;4905275;29;20040;-83
2022/11/26 11:09:37;;;;;;;4.43;1.50;;;7.80;96.60;;;;;;4888505;29;20051;-82
2022/11/26 11:12:16;;;;;;;7.47;1.48;;;7.80;96.30;;;;;;4881549;29;20139;-83
2022/11/26 11:14:45;;;;;;;2.92;1.15;;;7.90;96.30;;;;;;4901522;29;20052;-83
2022/11/26 11:17:30;;;;;;;3.55;1.48;;;7.90;96.30;;;;;;4906510;29;20059;-83
2022/11/26 11:20:24;;;;;;;6.07;1.90;;;7.90;96.30;;;;;;4915926;29;20036;-82
2022/11/26 11:23:02;;;;;;;3.28;1.40;;;8.00;96.30;;;;;;4887000;29;20056;-81
2022/11/26 11:25:35;;;;;;;2.88;1.15;;;8.00;96.30;;;;;;4905639;29;20066;-83
2022/11/26 11:28:15;;;;;;;5.50;2.08;;;8.00;96.30;;;;;;4904549;29;20121;-82
2022/11/26 11:30:44;;;;;;;5.78;2.40;;;8.00;96.30;;;;;;4925970;29;20501;-82
2022/11/26 11:33:24;;;;;;;4.13;1.90;;;8.00;96.30;;;;;;4887500;29;20075;-82
2022/11/26 11:35:57;;;;;;;6.30;2.00;;;8.10;96.30;;;;;;4915985;29;20064;-82
2022/11/26 11:38:27;;;;;;;7.45;2.10;;;8.10;96.30;;;;;;4916367;29;20152;-82
2022/11/26 11:40:54;;;;;;;4.72;2.05;;;8.10;96.40;;;;;;4910592;29;20113;-82
2022/11/26 11:43:23;;;;;;;5.55;2.42;;;8.20;96.30;;;;;;4920659;29;20052;-82
2022/11/26 11:46:16;;;;;;;5.25;1.70;;;8.20;96.30;;;;;;4909252;29;20499;-82
2022/11/26 11:48:55;;;;;;;3.45;1.63;;;8.40;96.30;;;;;;4924592;29;20430;-82
2022/11/26 11:51:37;;;;;;;4.15;1.35;;;8.50;96.30;;;;;;4928172;29;20052;-82
2022/11/26 11:54:13;;;;;;;4.70;1.30;;;8.60;96.20;;;;;;4904864;29;20049;-82
2022/11/26 11:56:46;;;;;;;3.53;1.00;;;8.60;96.20;;;;;;4912689;29;20108;-82
2022/11/26 11:59:36;;;;;;;6.22;1.65;;;8.80;96.40;;;;;;4913756;29;20055;-83
2022/11/26 12:02:21;;;;;;;4.78;1.70;;;8.80;96.10;;;;;;4881526;29;20055;-83
2022/11/26 12:05:03;;;;;;;3.17;1.40;;;8.80;96.10;;;;;;4901328;29;20111;-82
2022/11/26 12:07:41;;;;;;;4.77;1.30;;;8.90;96.10;;;;;;4907960;29;20048;-83
2022/11/26 12:10:20;;;;;;;5.20;0.98;;;8.90;96.10;;;;;;4914094;29;20100;-83
2022/11/26 12:12:57;;;;;;;5.13;1.92;;;8.90;96.20;;;;;;4894740;29;20450;-83
2022/11/26 12:15:29;;;;;;;3.05;1.38;;;8.90;96.20;;;;;;4900815;29;20086;-82
2022/11/26 12:18:05;;;;;;;5.90;2.05;;;8.90;96.20;;;;;;4904421;29;20057;-83
2022/11/26 12:20:39;;;;;;;5.32;1.92;;;8.90;96.30;;;;;;4925209;29;20108;-80
2022/11/26 12:23:24;;;;;;;3.22;1.50;;;8.80;96.30;;;;;;4905089;29;20551;-81
2022/11/26 12:26:12;;;;;;;5.03;1.65;;;8.80;96.40;;;;;;4884934;29;20178;-80
2022/11/26 12:28:58;;;;;;;5.50;1.10;;;8.80;96.40;;;;;;4906597;29;20084;-80
2022/11/26 12:31:35;;;;;;;3.42;1.52;;;8.80;96.50;;;;;;4906019;29;20052;-81
2022/11/26 12:34:11;;;;;;;3.67;1.50;;;8.70;96.50;;;;;;4913640;29;20052;-81
2022/11/26 12:36:56;;;;;;;4.20;1.38;;;8.80;96.50;;;;;;4903587;29;20052;-81
2022/11/26 12:39:48;;;;;;;2.88;1.02;;;8.80;96.50;;;;;;4891263;29;20055;-80
2022/11/26 12:42:24;;;;;;;4.30;1.20;;;8.80;96.50;;;;;;4893729;29;20124;-81
2022/11/26 12:44:56;;;;;;;7.38;1.75;;;8.80;96.60;;;;;;4902043;29;20100;-81
2022/11/26 12:47:37;;;;;;;8.10;3.03;;;8.90;96.80;;;;;;4923794;29;20039;-81
2022/11/26 12:50:25;;;;;;;4.85;1.80;;;9.00;96.50;;;;;;4919122;29;20048;-80
2022/11/26 12:53:15;;;;;;;4.72;2.10;;;9.00;96.50;;;;;;4918615;29;20055;-80
2022/11/26 12:56:01;;;;;;;5.55;2.05;;;9.10;96.50;;;;;;4924835;29;20052;-80
2022/11/26 12:58:55;;;;;;;4.72;1.45;;;9.10;96.50;;;;;;4912548;29;20083;-80
2022/11/26 13:01:26;;;;;;;5.90;1.92;;;9.20;96.50;;;;;;4903928;29;20459;-80
2022/11/26 13:03:55;;;;;;;6.18;1.60;;;9.20;96.50;;;;;;4911933;29;20147;-81
2022/11/26 13:07:09;;;;;;;3.47;1.30;;;9.30;96.50;;;;;;4906875;29;20051;-80
2022/11/26 13:09:52;;;;;;;4.05;1.33;;;9.30;96.40;;;;;;4915387;29;20045;-81
2022/11/26 13:12:58;;;;;;;2.58;1.20;;;9.40;96.40;;;;;;4918780;29;20051;-80
2022/11/26 13:15:34;;;;;;;2.42;1.00;;;9.50;96.40;;;;;;4895203;29;20052;-80
2022/11/26 13:18:02;;;;;;;3.88;1.50;;;9.50;96.30;;;;;;4912940;29;20117;-80
2022/11/26 13:20:51;;;;;;;3.05;1.40;;;9.60;96.30;;;;;;4869101;29;20059;-80
2022/11/26 13:23:29;;;;;;;5.75;1.15;;;9.60;96.30;;;;;;4918385;29;20036;-80
2022/11/26 13:26:17;;;;;;;3.47;1.10;;;9.60;96.30;;;;;;4906471;29;20052;-79